Time;durP1;ratioP1;P1;durP2;ratioP2;P2;SDS_P1;SDS_P2;PMS_P1;PMS_P2;Temp;Humidity;BMP_temperature;BMP_pressure;BME280_temperature;BME280_humidity;BME280_pressure;Samples;Min_cycle;Max_cycle;Signal;HPM_P1;HPM_P2
2022/04/10 00:01:30;;;;;;;1.60;1.50;;;3.90;98.20;;;;;;5064977;28;20996;-78
2022/04/10 00:03:58;;;;;;;1.60;1.40;;;3.80;98.20;;;;;;5063336;28;20476;-78
2022/04/10 00:06:26;;;;;;;1.60;1.47;;;3.80;98.20;;;;;;5064107;28;20469;-78
2022/04/10 00:08:53;;;;;;;1.60;1.50;;;3.80;98.20;;;;;;5071564;28;20475;-79
2022/04/10 00:11:20;;;;;;;1.60;1.40;;;3.80;98.20;;;;;;5065687;28;20492;-79
2022/04/10 00:13:47;;;;;;;1.60;1.40;;;3.80;98.20;;;;;;5068356;28;20464;-78
2022/04/10 00:16:13;;;;;;;1.60;1.40;;;3.80;98.20;;;;;;5068657;28;20547;-79
2022/04/10 00:18:40;;;;;;;1.57;1.47;;;3.80;98.20;;;;;;5067898;28;20461;-78
2022/04/10 00:21:08;;;;;;;1.60;1.40;;;3.70;98.20;;;;;;5070847;28;20480;-79
2022/04/10 00:23:35;;;;;;;1.60;1.40;;;3.70;98.20;;;;;;5068548;28;20465;-79
2022/04/10 00:26:02;;;;;;;1.57;1.43;;;3.70;98.20;;;;;;5068043;28;21045;-78
2022/04/10 00:28:30;;;;;;;1.60;1.40;;;3.70;98.20;;;;;;5066277;28;20567;-78
2022/04/10 00:30:57;;;;;;;1.70;1.60;;;3.70;98.20;;;;;;5065130;28;20992;-79
2022/04/10 00:33:24;;;;;;;1.60;1.40;;;3.60;98.20;;;;;;5063076;28;21002;-78
2022/04/10 00:35:51;;;;;;;1.57;1.40;;;3.60;98.20;;;;;;5067735;28;20973;-79
2022/04/10 00:38:20;;;;;;;1.60;1.50;;;3.60;98.20;;;;;;5068257;28;20476;-79
2022/04/10 00:40:48;;;;;;;1.60;1.50;;;3.50;98.20;;;;;;5064677;28;20485;-79
2022/04/10 00:43:15;;;;;;;1.60;1.40;;;3.50;98.20;;;;;;5068909;28;21240;-78
2022/04/10 00:45:42;;;;;;;1.60;1.40;;;3.50;98.20;;;;;;5069394;28;20539;-79
2022/04/10 00:48:10;;;;;;;1.53;1.40;;;3.50;98.20;;;;;;5068439;28;20589;-79
2022/04/10 00:50:36;;;;;;;1.70;1.60;;;3.50;98.20;;;;;;5074995;28;20495;-79
2022/04/10 00:53:03;;;;;;;1.60;1.50;;;3.50;98.20;;;;;;5074458;28;20864;-79
2022/04/10 00:55:32;;;;;;;1.60;1.40;;;3.40;98.20;;;;;;5063744;28;20469;-79
2022/04/10 00:57:58;;;;;;;1.53;1.40;;;3.40;98.20;;;;;;5068875;28;20465;-79
2022/04/10 01:00:25;;;;;;;1.60;1.50;;;3.40;98.20;;;;;;5073965;28;20481;-79
2022/04/10 01:02:52;;;;;;;1.53;1.40;;;3.40;98.20;;;;;;5066852;28;20469;-79
2022/04/10 01:05:19;;;;;;;1.60;1.50;;;3.40;98.20;;;;;;5073259;28;20465;-79
2022/04/10 01:07:46;;;;;;;1.50;1.33;;;3.40;98.20;;;;;;5070225;28;20473;-80
2022/04/10 01:10:12;;;;;;;1.53;1.40;;;3.30;98.20;;;;;;5071524;28;20495;-80
2022/04/10 01:12:41;;;;;;;1.60;1.43;;;3.30;98.20;;;;;;5063235;28;21304;-79
2022/04/10 01:15:09;;;;;;;1.60;1.40;;;3.30;98.20;;;;;;5058756;28;20851;-79
2022/04/10 01:17:36;;;;;;;1.70;1.60;;;3.30;98.20;;;;;;5068567;28;20495;-79
2022/04/10 01:20:04;;;;;;;1.60;1.50;;;3.30;98.20;;;;;;5070159;28;20485;-80
2022/04/10 01:22:34;;;;;;;3.50;3.30;;;3.30;98.20;;;;;;5066496;28;20465;-81
2022/04/10 01:25:04;;;;;;;1.57;1.40;;;3.20;98.20;;;;;;5081290;28;20478;-79
2022/04/10 01:27:36;;;;;;;1.70;1.60;;;3.20;98.20;;;;;;5069590;28;20469;-79
2022/04/10 01:30:02;;;;;;;1.60;1.50;;;3.20;98.20;;;;;;5072439;28;20531;-79
2022/04/10 01:32:29;;;;;;;1.53;1.40;;;3.20;98.20;;;;;;5075788;28;20483;-79
2022/04/10 01:34:59;;;;;;;1.70;1.60;;;3.10;98.20;;;;;;5074672;28;20918;-78
2022/04/10 01:37:27;;;;;;;1.60;1.47;;;3.10;98.20;;;;;;5073230;28;20980;-79
2022/04/10 01:39:55;;;;;;;1.60;1.50;;;3.10;98.20;;;;;;5078186;28;20469;-79
2022/04/10 01:42:22;;;;;;;1.57;1.40;;;3.10;98.20;;;;;;5078184;28;20456;-78
2022/04/10 01:44:49;;;;;;;1.60;1.50;;;3.00;98.20;;;;;;5075692;28;20460;-79
2022/04/10 01:47:16;;;;;;;1.60;1.50;;;3.00;98.20;;;;;;5076786;28;20460;-79
2022/04/10 01:49:43;;;;;;;1.60;1.50;;;3.00;98.20;;;;;;5075483;28;20472;-79
2022/04/10 01:52:09;;;;;;;1.60;1.50;;;3.00;98.20;;;;;;5074633;28;20999;-81
2022/04/10 01:54:36;;;;;;;1.60;1.50;;;3.00;98.20;;;;;;5079388;28;20464;-79
2022/04/10 01:57:05;;;;;;;1.60;1.50;;;2.90;98.20;;;;;;5077199;28;20465;-79
2022/04/10 01:59:32;;;;;;;1.60;1.50;;;2.90;98.20;;;;;;5074905;28;20485;-79
2022/04/10 02:01:59;;;;;;;1.60;1.50;;;2.90;98.20;;;;;;5076169;28;20504;-79
2022/04/10 02:04:26;;;;;;;1.97;1.77;;;2.80;98.20;;;;;;5070686;28;20476;-79
2022/04/10 02:06:52;;;;;;;1.60;1.40;;;2.80;98.20;;;;;;5073869;28;20468;-79
2022/04/10 02:09:19;;;;;;;1.60;1.50;;;2.80;98.20;;;;;;5070408;28;20469;-79
2022/04/10 02:11:46;;;;;;;1.60;1.50;;;2.80;98.20;;;;;;5078704;28;20508;-79
2022/04/10 02:14:14;;;;;;;1.60;1.50;;;2.80;98.20;;;;;;5076899;28;20462;-79
2022/04/10 02:16:41;;;;;;;1.70;1.60;;;2.80;98.20;;;;;;5079662;28;20461;-79
2022/04/10 02:19:07;;;;;;;1.60;1.50;;;2.80;98.20;;;;;;5070602;28;20472;-79
2022/04/10 02:21:34;;;;;;;1.60;1.50;;;2.80;98.20;;;;;;5074360;28;20480;-79
2022/04/10 02:24:01;;;;;;;1.60;1.50;;;2.80;98.20;;;;;;5071127;28;20466;-79
2022/04/10 02:26:28;;;;;;;1.60;1.50;;;2.80;98.20;;;;;;5083309;28;20468;-79
2022/04/10 02:28:55;;;;;;;1.57;1.40;;;2.80;98.20;;;;;;5087977;28;20464;-79
2022/04/10 02:31:23;;;;;;;1.60;1.50;;;2.80;98.20;;;;;;5080584;28;20480;-79
2022/04/10 02:33:50;;;;;;;1.60;1.50;;;2.80;98.20;;;;;;5071727;28;20465;-79
2022/04/10 02:36:19;;;;;;;1.60;1.50;;;2.80;98.20;;;;;;5078441;28;20466;-80
2022/04/10 02:38:46;;;;;;;1.60;1.50;;;2.80;98.20;;;;;;5070648;28;20511;-79
2022/04/10 02:41:12;;;;;;;1.60;1.50;;;2.80;98.20;;;;;;5072183;28;20477;-80
2022/04/10 02:43:40;;;;;;;1.60;1.50;;;2.70;98.20;;;;;;5075275;28;20457;-79
2022/04/10 02:46:07;;;;;;;1.60;1.50;;;2.70;98.20;;;;;;5071883;28;20473;-79
2022/04/10 02:48:35;;;;;;;1.60;1.40;;;2.70;98.20;;;;;;5075886;28;20465;-79
2022/04/10 02:51:02;;;;;;;1.60;1.50;;;2.80;98.20;;;;;;5073839;28;20668;-79
2022/04/10 02:53:29;;;;;;;1.50;1.40;;;2.80;98.20;;;;;;5075274;28;20453;-79
2022/04/10 02:55:56;;;;;;;1.60;1.50;;;2.80;98.20;;;;;;5088386;28;20475;-80
2022/04/10 02:58:23;;;;;;;1.70;1.60;;;2.80;98.20;;;;;;5074010;28;20671;-79
2022/04/10 03:00:50;;;;;;;1.60;1.50;;;2.80;98.20;;;;;;5086314;28;20481;-80
2022/04/10 03:03:17;;;;;;;1.60;1.50;;;2.80;98.20;;;;;;5070558;28;20840;-79
2022/04/10 03:05:45;;;;;;;1.60;1.50;;;2.80;98.20;;;;;;5081290;28;20961;-80
2022/04/10 03:08:12;;;;;;;1.60;1.50;;;2.80;98.20;;;;;;5070080;28;20461;-82
2022/04/10 03:10:39;;;;;;;1.60;1.50;;;2.80;98.20;;;;;;5067547;28;20485;-79
2022/04/10 03:13:06;;;;;;;1.60;1.50;;;2.80;98.20;;;;;;5072679;28;20479;-80
2022/04/10 03:15:33;;;;;;;1.60;1.50;;;2.80;98.20;;;;;;5070508;28;20984;-79
2022/04/10 03:18:01;;;;;;;1.60;1.50;;;2.90;98.20;;;;;;5075870;28;20465;-77
2022/04/10 03:20:28;;;;;;;1.57;1.47;;;2.90;98.20;;;;;;5068440;28;20489;-79
2022/04/10 03:22:56;;;;;;;1.57;1.40;;;2.90;98.20;;;;;;5070583;28;20454;-80
2022/04/10 03:25:23;;;;;;;1.50;1.40;;;2.90;98.20;;;;;;5070074;28;20462;-77
2022/04/10 03:27:49;;;;;;;1.57;1.47;;;2.90;98.20;;;;;;5074159;28;20469;-78
2022/04/10 03:30:16;;;;;;;1.57;1.40;;;3.00;98.20;;;;;;5071953;28;21138;-77
2022/04/10 03:32:43;;;;;;;1.57;1.40;;;3.00;98.20;;;;;;5072315;28;20488;-80
2022/04/10 03:35:10;;;;;;;1.60;1.50;;;3.00;98.20;;;;;;5086167;28;20457;-77
2022/04/10 03:37:37;;;;;;;1.60;1.40;;;3.00;98.20;;;;;;5077689;28;20460;-78
2022/04/10 03:40:06;;;;;;;1.60;1.50;;;3.00;98.20;;;;;;5082456;28;20855;-78
2022/04/10 03:42:39;;;;;;;1.60;1.40;;;3.00;98.20;;;;;;5074552;28;20496;-80
2022/04/10 03:45:07;;;;;;;1.60;1.50;;;3.00;98.20;;;;;;5074666;28;20491;-79
2022/04/10 03:47:34;;;;;;;1.57;1.40;;;3.00;98.20;;;;;;5086559;28;20465;-80
2022/04/10 03:50:01;;;;;;;1.50;1.40;;;3.00;98.20;;;;;;5074788;28;20481;-80
2022/04/10 03:52:27;;;;;;;1.60;1.50;;;3.00;98.20;;;;;;5090564;28;20485;-81
2022/04/10 03:54:54;;;;;;;1.60;1.50;;;3.00;98.20;;;;;;5084970;28;20488;-77
2022/04/10 03:57:22;;;;;;;3.40;3.20;;;3.00;98.20;;;;;;5073785;28;21020;-77
2022/04/10 03:59:49;;;;;;;1.57;1.40;;;3.00;98.20;;;;;;5069145;28;20477;-81
2022/04/10 04:02:16;;;;;;;1.70;1.60;;;3.00;98.20;;;;;;5075629;28;20999;-80
2022/04/10 04:04:43;;;;;;;1.50;1.40;;;3.00;98.20;;;;;;5070480;28;20504;-80
2022/04/10 04:07:10;;;;;;;1.60;1.50;;;2.90;98.20;;;;;;5076043;28;20959;-80
2022/04/10 04:09:37;;;;;;;1.57;1.40;;;2.90;98.20;;;;;;5070008;28;20496;-80
2022/04/10 04:12:04;;;;;;;1.70;1.60;;;2.90;98.20;;;;;;5079152;28;20485;-80
2022/04/10 04:14:32;;;;;;;1.53;1.40;;;2.80;98.20;;;;;;5073917;28;20489;-80
2022/04/10 04:16:59;;;;;;;1.57;1.47;;;2.80;98.20;;;;;;5074878;28;20470;-79
2022/04/10 04:19:25;;;;;;;1.60;1.50;;;2.70;98.20;;;;;;5069815;28;20937;-80
2022/04/10 04:21:52;;;;;;;1.60;1.50;;;2.70;98.20;;;;;;5074856;28;20457;-77
2022/04/10 04:24:19;;;;;;;1.90;1.80;;;2.70;98.20;;;;;;5080293;28;20952;-80
2022/04/10 04:26:46;;;;;;;1.60;1.50;;;2.60;98.20;;;;;;5082226;28;20458;-80
2022/04/10 04:29:12;;;;;;;1.60;1.50;;;2.60;98.20;;;;;;5069718;28;20457;-82
2022/04/10 04:31:41;;;;;;;1.70;1.60;;;2.60;98.20;;;;;;5072499;28;20958;-80
2022/04/10 04:34:11;;;;;;;1.60;1.50;;;2.50;98.20;;;;;;5073286;28;20465;-79
2022/04/10 04:36:38;;;;;;;1.60;1.50;;;2.50;98.20;;;;;;5072232;28;20468;-80
2022/04/10 04:39:05;;;;;;;1.60;1.50;;;2.40;98.20;;;;;;5070329;28;20465;-80
2022/04/10 04:41:31;;;;;;;1.60;1.50;;;2.40;98.20;;;;;;5072278;28;20468;-80
2022/04/10 04:43:58;;;;;;;1.60;1.50;;;2.40;98.20;;;;;;5075687;28;20456;-79
2022/04/10 04:46:25;;;;;;;1.60;1.50;;;2.30;98.20;;;;;;5075693;28;20547;-77
2022/04/10 04:48:54;;;;;;;1.60;1.50;;;2.30;98.20;;;;;;5070834;28;20457;-79
2022/04/10 04:51:21;;;;;;;1.60;1.50;;;2.30;98.20;;;;;;5070707;28;20492;-80
2022/04/10 04:53:47;;;;;;;1.60;1.50;;;2.30;98.20;;;;;;5075844;28;20457;-79
2022/04/10 04:56:15;;;;;;;1.60;1.50;;;2.30;98.20;;;;;;5075547;28;20929;-79
2022/04/10 04:58:42;;;;;;;1.60;1.50;;;2.30;98.20;;;;;;5078093;28;20464;-79
2022/04/10 05:01:09;;;;;;;1.57;1.40;;;2.20;98.20;;;;;;5089319;28;20484;-79
2022/04/10 05:03:36;;;;;;;1.60;1.50;;;2.20;98.20;;;;;;5081020;28;20466;-79
2022/04/10 05:06:05;;;;;;;1.60;1.50;;;2.20;98.20;;;;;;5072748;28;20508;-79
2022/04/10 05:08:31;;;;;;;1.60;1.50;;;2.20;98.20;;;;;;5070691;28;20476;-79
2022/04/10 05:11:00;;;;;;;1.60;1.50;;;2.20;98.20;;;;;;5082424;28;20481;-80
2022/04/10 05:13:27;;;;;;;1.60;1.50;;;2.20;98.20;;;;;;5088844;28;20944;-78
2022/04/10 05:15:55;;;;;;;1.70;1.60;;;2.30;98.20;;;;;;5081081;28;20461;-80
2022/04/10 05:18:23;;;;;;;1.63;1.53;;;2.30;98.20;;;;;;5080094;28;20664;-81
2022/04/10 05:20:49;;;;;;;1.60;1.50;;;2.30;98.20;;;;;;5084181;28;20506;-80
2022/04/10 05:23:18;;;;;;;1.60;1.50;;;2.40;98.20;;;;;;5097987;28;20515;-80
2022/04/10 05:25:46;;;;;;;1.60;1.50;;;2.40;98.20;;;;;;5095119;28;20880;-80
2022/04/10 05:28:13;;;;;;;1.57;1.40;;;2.50;98.20;;;;;;5084862;28;20948;-86
2022/04/10 05:30:40;;;;;;;1.57;1.40;;;2.50;98.20;;;;;;5097817;28;20480;-80
2022/04/10 05:33:07;;;;;;;1.57;1.40;;;2.60;98.20;;;;;;5079176;28;20491;-79
2022/04/10 05:35:34;;;;;;;1.60;1.50;;;2.60;98.20;;;;;;5088216;28;20464;-78
2022/04/10 05:38:01;;;;;;;1.60;1.50;;;2.60;98.20;;;;;;5092548;28;20456;-84
2022/04/10 05:40:29;;;;;;;1.53;1.40;;;2.70;98.20;;;;;;5085391;28;20513;-79
2022/04/10 05:43:14;;;;;;;1.60;1.50;;;2.70;98.20;;;;;;5081586;28;20456;-80
2022/04/10 05:45:41;;;;;;;1.70;1.60;;;2.70;98.20;;;;;;5071594;28;20484;-77
2022/04/10 05:48:08;;;;;;;1.57;1.40;;;2.80;98.20;;;;;;5075957;28;20476;-77
2022/04/10 05:50:35;;;;;;;1.60;1.50;;;2.80;98.20;;;;;;5068999;28;20794;-76
2022/04/10 05:53:03;;;;;;;1.60;1.50;;;3.00;98.20;;;;;;5076087;28;20523;-78
2022/04/10 05:55:31;;;;;;;1.60;1.50;;;3.10;98.20;;;;;;5083586;28;20464;-77
2022/04/10 05:57:58;;;;;;;1.53;1.40;;;3.40;98.20;;;;;;5081275;28;20558;-77
2022/04/10 06:00:25;;;;;;;1.60;1.43;;;3.50;98.20;;;;;;5081973;28;20884;-75
2022/04/10 06:02:53;;;;;;;1.50;1.37;;;3.60;98.20;;;;;;5073048;28;20456;-76
2022/04/10 06:05:20;;;;;;;1.50;1.30;;;3.70;98.20;;;;;;5071064;28;20460;-78
2022/04/10 06:07:47;;;;;;;1.50;1.40;;;3.80;98.20;;;;;;5084651;28;20457;-77
2022/04/10 06:10:13;;;;;;;1.50;1.40;;;3.90;98.20;;;;;;5080176;28;20476;-79
2022/04/10 06:12:42;;;;;;;1.53;1.40;;;4.10;98.20;;;;;;5083577;28;21010;-75
2022/04/10 06:15:09;;;;;;;1.60;1.50;;;4.40;98.20;;;;;;5075612;28;20464;-77
2022/04/10 06:17:37;;;;;;;1.53;1.40;;;4.60;98.20;;;;;;5072801;28;20545;-79
2022/04/10 06:20:04;;;;;;;1.50;1.33;;;4.90;98.20;;;;;;5081157;28;20476;-80
2022/04/10 06:22:31;;;;;;;1.60;1.40;;;5.10;98.20;;;;;;5072401;28;20883;-76
2022/04/10 06:24:58;;;;;;;1.57;1.33;;;5.30;98.20;;;;;;5072759;28;20453;-82
2022/04/10 06:27:25;;;;;;;1.53;1.40;;;5.50;98.20;;;;;;5078396;28;20823;-81
2022/04/10 06:29:53;;;;;;;1.57;1.40;;;5.80;98.20;;;;;;5073249;28;20493;-78
2022/04/10 06:32:20;;;;;;;1.53;1.40;;;6.10;98.20;;;;;;5073857;28;20496;-78
2022/04/10 06:34:47;;;;;;;1.53;1.40;;;6.30;98.20;;;;;;5083071;28;20477;-78
2022/04/10 06:37:14;;;;;;;1.50;1.30;;;6.50;98.20;;;;;;5080458;28;20453;-77
2022/04/10 06:39:41;;;;;;;1.57;1.30;;;6.80;98.20;;;;;;5082024;28;20485;-76
2022/04/10 06:42:09;;;;;;;1.53;1.40;;;7.00;98.20;;;;;;5075342;28;20460;-78
2022/04/10 06:44:37;;;;;;;1.50;1.30;;;7.20;98.20;;;;;;5079788;28;20462;-81
2022/04/10 06:47:05;;;;;;;1.50;1.30;;;7.50;98.20;;;;;;5072656;28;20465;-77
2022/04/10 06:49:33;;;;;;;1.57;1.30;;;7.80;98.20;;;;;;5075438;28;20492;-78
2022/04/10 06:52:00;;;;;;;1.50;1.30;;;8.00;98.20;;;;;;5093964;22;20497;-75
2022/04/10 06:54:27;;;;;;;1.53;1.40;;;8.10;97.70;;;;;;5061846;28;20487;-77
2022/04/10 06:56:54;;;;;;;1.50;1.30;;;8.30;98.10;;;;;;5058512;28;20462;-75
2022/04/10 06:59:21;;;;;;;1.50;1.20;;;8.50;97.80;;;;;;5067731;28;20864;-75
2022/04/10 07:01:48;;;;;;;1.60;1.30;;;8.80;96.90;;;;;;5060142;28;20846;-75
2022/04/10 07:04:16;;;;;;;1.50;1.20;;;9.00;96.20;;;;;;5063184;28;20472;-75
2022/04/10 07:06:46;;;;;;;1.53;1.20;;;9.20;95.10;;;;;;5061935;28;20458;-75
2022/04/10 07:09:13;;;;;;;1.60;1.30;;;9.40;94.30;;;;;;5049601;28;20470;-76
2022/04/10 07:11:40;;;;;;;1.53;1.20;;;9.60;93.80;;;;;;5042742;28;20510;-76
2022/04/10 07:14:07;;;;;;;1.53;1.20;;;9.70;93.00;;;;;;5040020;28;21175;-76
2022/04/10 07:16:34;;;;;;;1.50;1.13;;;9.90;92.20;;;;;;5043184;28;20849;-75
2022/04/10 07:19:01;;;;;;;1.60;1.40;;;9.90;93.10;;;;;;5043557;28;20902;-75
2022/04/10 07:24:34;;;;;;;1.50;1.10;;;9.90;90.60;;;;;;5049145;28;20607;-75
2022/04/10 07:27:01;;;;;;;1.50;1.20;;;9.90;91.20;;;;;;5056047;28;20467;-75
2022/04/10 07:29:48;;;;;;;1.53;1.10;;;9.90;91.10;;;;;;5069464;28;20461;-75
2022/04/10 07:32:14;;;;;;;1.53;1.30;;;9.80;91.20;;;;;;5056972;28;20493;-75
2022/04/10 07:34:41;;;;;;;1.50;1.10;;;9.70;90.90;;;;;;5070212;28;20649;-75
2022/04/10 07:37:09;;;;;;;1.50;1.20;;;9.50;91.00;;;;;;5053506;28;20470;-75
2022/04/10 07:39:36;;;;;;;1.50;1.10;;;9.30;91.70;;;;;;5037948;28;20505;-75
2022/04/10 07:42:03;;;;;;;1.50;1.10;;;9.20;93.20;;;;;;5036399;28;20860;-76
2022/04/10 07:44:30;;;;;;;1.50;1.20;;;9.40;93.50;;;;;;5053695;28;20457;-75
2022/04/10 07:49:41;;;;;;;1.50;1.10;;;10.00;93.10;;;;;;5045720;28;20773;-76
2022/04/10 07:52:10;;;;;;;1.50;1.10;;;10.30;91.50;;;;;;5034133;28;20501;-75
2022/04/10 07:54:36;;;;;;;1.50;1.10;;;10.60;90.60;;;;;;5031842;28;20459;-76
2022/04/10 07:57:04;;;;;;;1.50;1.10;;;10.90;89.30;;;;;;5031130;28;20463;-74
2022/04/10 07:59:31;;;;;;;1.50;1.10;;;11.10;89.20;;;;;;5027364;28;20565;-76
2022/04/10 08:01:57;;;;;;;1.53;1.10;;;11.30;88.10;;;;;;5019193;28;20482;-76
2022/04/10 08:04:25;;;;;;;1.50;1.10;;;11.50;87.60;;;;;;5025004;28;20465;-75
2022/04/10 08:06:52;;;;;;;1.50;1.10;;;11.60;87.60;;;;;;5024657;28;20537;-75
2022/04/10 08:09:20;;;;;;;1.50;1.10;;;11.90;86.50;;;;;;5022218;28;20853;-75
2022/04/10 08:11:47;;;;;;;1.50;1.00;;;12.10;87.00;;;;;;5020183;28;20486;-75
2022/04/10 08:14:14;;;;;;;1.50;1.10;;;12.30;86.90;;;;;;5022415;28;20495;-76
2022/04/10 08:16:40;;;;;;;1.60;1.27;;;12.60;85.80;;;;;;5026765;28;20502;-76
2022/04/10 08:19:07;;;;;;;1.50;1.00;;;12.70;84.40;;;;;;5030295;28;20861;-75
2022/04/10 08:21:34;;;;;;;1.50;1.10;;;12.90;83.50;;;;;;5021607;28;20492;-75
2022/04/10 08:24:01;;;;;;;1.50;0.90;;;13.00;82.70;;;;;;5027470;28;20942;-75
2022/04/10 08:26:29;;;;;;;1.50;1.00;;;13.00;82.90;;;;;;5028894;28;20467;-75
2022/04/10 08:28:56;;;;;;;1.50;1.00;;;12.80;82.20;;;;;;5024352;28;20925;-75
2022/04/10 08:31:23;;;;;;;1.50;1.00;;;12.50;83.00;;;;;;5025372;28;20511;-76
2022/04/10 08:33:51;;;;;;;1.50;1.10;;;12.30;84.10;;;;;;5026508;28;20576;-75
2022/04/10 08:36:18;;;;;;;1.50;1.10;;;12.10;84.50;;;;;;5029161;28;20467;-75
2022/04/10 08:38:45;;;;;;;1.50;1.00;;;11.90;84.10;;;;;;5029288;28;20554;-75
2022/04/10 08:41:13;;;;;;;1.50;1.00;;;11.80;84.60;;;;;;5020929;28;20732;-76
2022/04/10 08:43:42;;;;;;;1.47;1.00;;;11.80;84.80;;;;;;5025694;28;20463;-74
2022/04/10 08:46:09;;;;;;;1.50;1.10;;;11.90;84.60;;;;;;5022423;28;20475;-74
2022/04/10 08:48:37;;;;;;;1.50;1.00;;;12.00;84.00;;;;;;5031767;28;20812;-75
2022/04/10 08:51:06;;;;;;;1.50;1.00;;;12.00;83.50;;;;;;5018688;28;20785;-75
2022/04/10 08:53:33;;;;;;;1.50;1.00;;;11.90;83.20;;;;;;5023499;28;20584;-78
2022/04/10 08:56:01;;;;;;;1.50;1.10;;;11.90;83.50;;;;;;5026632;28;20561;-78
2022/04/10 08:58:27;;;;;;;1.47;1.00;;;12.00;82.70;;;;;;5017799;28;20498;-74
2022/04/10 09:00:56;;;;;;;1.50;1.00;;;11.80;83.40;;;;;;5022072;28;20475;-75
2022/04/10 09:03:22;;;;;;;1.50;1.00;;;11.70;83.50;;;;;;5030303;28;20462;-75
2022/04/10 09:06:02;;;;;;;1.50;1.00;;;11.60;83.20;;;;;;5036698;28;20850;-75
2022/04/10 09:08:29;;;;;;;1.50;1.00;;;11.60;83.00;;;;;;5026550;28;20459;-75
2022/04/10 09:10:59;;;;;;;1.47;1.00;;;11.70;83.20;;;;;;5029468;28;20470;-78
2022/04/10 09:13:31;;;;;;;1.50;1.00;;;12.00;84.20;;;;;;5016540;28;20484;-75
2022/04/10 09:16:14;;;;;;;1.50;1.00;;;12.40;82.40;;;;;;5026685;28;20899;-75
2022/04/10 09:18:55;;;;;;;1.50;1.00;;;12.60;78.40;;;;;;5025882;28;21036;-76
2022/04/10 09:21:24;;;;;;;1.43;0.90;;;12.50;79.20;;;;;;5014340;28;20491;-76
2022/04/10 09:23:56;;;;;;;1.47;1.00;;;12.60;79.30;;;;;;5027169;28;20477;-75
2022/04/10 09:26:23;;;;;;;1.50;1.00;;;12.60;78.20;;;;;;5033388;28;20469;-75
2022/04/10 09:28:52;;;;;;;1.50;1.10;;;12.40;77.80;;;;;;5033411;28;20459;-76
2022/04/10 09:31:33;;;;;;;1.50;1.00;;;12.40;79.70;;;;;;5033452;28;20478;-75
2022/04/10 09:34:02;;;;;;;1.50;1.00;;;12.80;78.80;;;;;;5023239;28;20584;-77
2022/04/10 09:36:37;;;;;;;1.50;1.00;;;13.20;78.10;;;;;;5030834;28;20474;-77
2022/04/10 09:39:09;;;;;;;1.50;1.00;;;13.70;77.10;;;;;;5029597;28;20604;-76
2022/04/10 09:41:37;;;;;;;1.47;1.00;;;14.00;77.10;;;;;;5015449;28;21120;-75
2022/04/10 09:44:17;;;;;;;1.50;0.93;;;14.10;76.60;;;;;;5029442;28;20533;-76
2022/04/10 09:46:57;;;;;;;1.50;1.00;;;14.00;75.60;;;;;;5032027;28;20892;-74
2022/04/10 09:49:25;;;;;;;1.50;1.10;;;13.70;76.20;;;;;;5030241;28;20463;-76
2022/04/10 09:52:06;;;;;;;1.50;1.00;;;13.40;76.40;;;;;;5032325;28;20498;-74
2022/04/10 09:54:34;;;;;;;1.50;1.00;;;13.00;76.80;;;;;;5035803;28;20533;-75
2022/04/10 09:57:04;;;;;;;1.50;1.00;;;12.60;77.20;;;;;;5031242;28;20463;-74
2022/04/10 09:59:36;;;;;;;1.50;1.00;;;12.50;78.20;;;;;;5030588;28;20529;-75
2022/04/10 10:02:06;;;;;;;1.50;1.00;;;12.40;79.30;;;;;;5030140;28;20486;-75
2022/04/10 10:04:35;;;;;;;1.47;1.00;;;12.50;79.00;;;;;;5029364;28;20939;-75
2022/04/10 10:07:05;;;;;;;1.50;1.00;;;12.50;78.60;;;;;;5031850;28;20526;-75
2022/04/10 10:09:34;;;;;;;1.50;1.00;;;12.50;78.40;;;;;;5034395;28;20558;-76
2022/04/10 10:12:02;;;;;;;1.50;1.03;;;12.40;77.10;;;;;;5026370;28;20483;-76
2022/04/10 10:14:31;;;;;;;1.50;1.10;;;12.20;77.10;;;;;;5028695;28;20617;-74
2022/04/10 10:16:59;;;;;;;1.50;1.00;;;12.20;77.60;;;;;;5028703;28;21158;-76
2022/04/10 10:19:30;;;;;;;1.47;1.00;;;12.10;77.30;;;;;;5027684;28;20558;-76
2022/04/10 10:21:58;;;;;;;1.47;1.00;;;12.00;77.30;;;;;;5029069;28;20515;-77
2022/04/10 10:24:28;;;;;;;1.50;1.00;;;11.90;78.20;;;;;;5040008;28;20472;-77
2022/04/10 10:27:20;;;;;;;1.50;1.00;;;11.90;77.30;;;;;;5028588;28;21022;-76
2022/04/10 10:30:08;;;;;;;1.50;1.00;;;12.00;78.60;;;;;;5028737;28;20486;-76
2022/04/10 10:32:41;;;;;;;1.47;1.00;;;12.30;79.10;;;;;;5028921;28;20498;-76
2022/04/10 10:35:11;;;;;;;1.50;1.00;;;12.50;77.70;;;;;;5028851;28;20523;-78
2022/04/10 10:37:52;;;;;;;1.50;1.00;;;12.50;76.20;;;;;;5030569;28;21065;-76
2022/04/10 10:40:20;;;;;;;1.50;1.00;;;12.40;76.40;;;;;;5020055;28;20470;-76
2022/04/10 10:42:49;;;;;;;1.47;1.00;;;12.50;76.70;;;;;;5017995;28;20685;-76
2022/04/10 10:45:37;;;;;;;1.50;1.00;;;12.60;77.40;;;;;;5027419;28;20470;-75
2022/04/10 10:48:38;;;;;;;1.47;1.00;;;12.50;76.90;;;;;;5021725;28;20468;-76
2022/04/10 10:51:41;;;;;;;1.50;1.00;;;12.60;78.00;;;;;;4994030;28;20467;-75
2022/04/10 10:54:11;;;;;;;1.50;1.00;;;12.50;77.00;;;;;;5024516;28;20845;-75
2022/04/10 10:56:40;;;;;;;1.50;1.10;;;12.60;75.90;;;;;;5027799;28;20590;-76
2022/04/10 10:59:34;;;;;;;1.50;1.00;;;12.60;76.20;;;;;;5029311;28;20967;-78
2022/04/10 11:02:06;;;;;;;1.43;1.00;;;12.60;75.10;;;;;;5026516;28;20494;-77
2022/04/10 11:04:40;;;;;;;1.47;1.00;;;13.00;75.30;;;;;;5026195;28;20547;-74
2022/04/10 11:07:21;;;;;;;1.50;1.00;;;13.50;75.10;;;;;;5028636;28;20463;-75
2022/04/10 11:09:52;;;;;;;1.43;1.00;;;13.80;72.30;;;;;;5027555;28;20463;-77
2022/04/10 11:12:22;;;;;;;1.50;0.90;;;14.20;72.90;;;;;;5024487;28;20552;-76
2022/04/10 11:14:51;;;;;;;1.50;1.00;;;14.30;71.70;;;;;;5026733;28;20479;-77
2022/04/10 11:17:19;;;;;;;1.50;0.93;;;14.40;72.60;;;;;;5025365;28;20471;-76
2022/04/10 11:19:48;;;;;;;1.47;0.90;;;14.30;71.80;;;;;;5030146;28;20463;-75
2022/04/10 11:22:21;;;;;;;1.50;0.90;;;14.20;73.00;;;;;;5028397;28;20487;-77
2022/04/10 11:24:52;;;;;;;1.80;1.33;;;14.20;72.80;;;;;;5030992;28;20550;-77
2022/04/10 11:27:44;;;;;;;1.50;1.00;;;14.20;72.90;;;;;;5028004;28;20943;-78
2022/04/10 11:30:13;;;;;;;1.50;1.00;;;14.40;72.00;;;;;;5019913;28;20490;-76
2022/04/10 11:32:46;;;;;;;1.50;1.00;;;14.40;72.70;;;;;;5031128;28;20514;-76
2022/04/10 11:35:21;;;;;;;1.50;1.00;;;14.50;72.20;;;;;;5028494;28;20491;-77
2022/04/10 11:37:51;;;;;;;1.47;0.90;;;14.30;71.20;;;;;;5030603;28;20462;-76
2022/04/10 11:40:20;;;;;;;1.47;0.90;;;14.10;71.50;;;;;;5028274;28;20644;-77
2022/04/10 11:42:48;;;;;;;1.40;0.90;;;14.20;73.40;;;;;;5021151;28;20482;-78
2022/04/10 11:45:15;;;;;;;1.40;1.00;;;14.50;73.40;;;;;;5028030;28;20491;-78
2022/04/10 11:47:43;;;;;;;1.50;1.00;;;14.70;73.60;;;;;;5026045;28;20538;-76
2022/04/10 11:50:13;;;;;;;1.50;0.90;;;15.10;74.20;;;;;;5026223;28;20466;-77
2022/04/10 11:52:41;;;;;;;1.47;0.90;;;15.40;71.80;;;;;;5022150;28;21016;-76
2022/04/10 11:55:12;;;;;;;1.50;1.00;;;15.60;73.00;;;;;;5021910;28;21020;-77
2022/04/10 11:57:39;;;;;;;1.50;0.93;;;15.70;71.50;;;;;;5025555;28;20502;-77
2022/04/10 12:00:10;;;;;;;1.50;0.97;;;15.80;70.10;;;;;;5022616;28;20496;-76
2022/04/10 12:02:38;;;;;;;1.47;0.93;;;15.90;68.80;;;;;;5022821;28;20520;-77
2022/04/10 12:05:09;;;;;;;1.50;0.90;;;16.00;69.10;;;;;;5022044;28;20494;-78
2022/04/10 12:07:40;;;;;;;1.47;0.93;;;16.10;68.90;;;;;;5018220;28;20463;-76
2022/04/10 12:10:07;;;;;;;1.50;0.90;;;16.00;67.70;;;;;;5021194;28;20498;-78
2022/04/10 12:12:40;;;;;;;1.50;0.90;;;16.00;68.90;;;;;;5019479;28;20491;-75
2022/04/10 12:15:19;;;;;;;1.50;0.90;;;16.00;68.60;;;;;;5020555;28;20490;-77
2022/04/10 12:17:46;;;;;;;1.50;0.90;;;16.00;69.80;;;;;;5019334;28;21091;-74
2022/04/10 12:20:13;;;;;;;1.50;0.90;;;16.20;68.30;;;;;;5020724;28;20466;-74
2022/04/10 12:22:42;;;;;;;1.50;0.93;;;16.20;69.50;;;;;;5024608;28;20487;-76
2022/04/10 12:25:11;;;;;;;1.50;0.90;;;16.50;69.60;;;;;;5023962;28;20486;-75
2022/04/10 12:27:42;;;;;;;1.50;0.90;;;16.30;68.40;;;;;;5020986;28;20463;-75
2022/04/10 12:30:13;;;;;;;1.47;0.90;;;16.60;69.10;;;;;;5027968;28;20888;-75
2022/04/10 12:32:41;;;;;;;1.50;0.90;;;16.90;67.60;;;;;;5028990;28;20486;-76
2022/04/10 12:35:11;;;;;;;1.50;0.90;;;17.10;67.90;;;;;;5029001;28;20580;-75
2022/04/10 12:37:45;;;;;;;1.50;0.90;;;17.30;65.70;;;;;;5028983;28;20463;-77
2022/04/10 12:40:13;;;;;;;1.50;0.90;;;17.60;65.60;;;;;;5026931;28;20455;-77
2022/04/10 12:42:43;;;;;;;1.50;0.90;;;17.90;63.70;;;;;;5022127;28;20475;-76
2022/04/10 12:45:12;;;;;;;1.50;0.90;;;17.90;63.60;;;;;;5029235;28;20451;-76
2022/04/10 12:47:41;;;;;;;1.50;0.90;;;17.60;62.10;;;;;;5025210;28;20498;-76
2022/04/10 12:50:11;;;;;;;1.50;0.90;;;17.00;64.10;;;;;;5027604;28;20463;-76
2022/04/10 12:52:40;;;;;;;1.47;0.90;;;16.60;65.20;;;;;;5028038;28;20975;-77
2022/04/10 12:55:36;;;;;;;1.50;0.90;;;16.20;66.50;;;;;;5026076;28;20987;-76
2022/04/10 12:58:07;;;;;;;1.47;1.00;;;15.80;69.30;;;;;;5028361;28;20471;-76
2022/04/10 13:00:36;;;;;;;1.43;0.90;;;15.70;69.30;;;;;;5029997;28;20463;-78
2022/04/10 13:03:22;;;;;;;1.47;0.90;;;15.80;70.00;;;;;;5031575;28;20478;-76
2022/04/10 13:05:57;;;;;;;1.50;0.90;;;16.00;69.10;;;;;;5026959;28;20455;-77
2022/04/10 13:08:25;;;;;;;1.47;0.90;;;16.00;68.40;;;;;;5028649;28;20841;-76